sensor_id;sensor_type;location;lat;lon;timestamp;P1;durP1;ratioP1;P2;durP2;ratioP2
1685;SDS011;840;47.980;7.830;2022-07-23T00:00:09;7.80;;;7.10;;
1685;SDS011;840;47.980;7.830;2022-07-23T00:02:38;7.23;;;6.60;;
1685;SDS011;840;47.980;7.830;2022-07-23T00:05:05;6.53;;;5.90;;
1685;SDS011;840;47.980;7.830;2022-07-23T00:07:32;6.40;;;5.90;;
1685;SDS011;840;47.980;7.830;2022-07-23T00:09:59;8.10;;;6.20;;
1685;SDS011;840;47.980;7.830;2022-07-23T00:12:26;5.70;;;5.30;;
1685;SDS011;840;47.980;7.830;2022-07-23T00:14:53;6.53;;;5.30;;
1685;SDS011;840;47.980;7.830;2022-07-23T00:17:20;7.07;;;6.07;;
1685;SDS011;840;47.980;7.830;2022-07-23T00:19:48;6.67;;;6.17;;
1685;SDS011;840;47.980;7.830;2022-07-23T00:22:14;5.97;;;5.57;;
1685;SDS011;840;47.980;7.830;2022-07-23T00:24:41;6.90;;;6.40;;
1685;SDS011;840;47.980;7.830;2022-07-23T00:27:08;6.90;;;6.40;;
1685;SDS011;840;47.980;7.830;2022-07-23T00:29:35;8.10;;;6.33;;
1685;SDS011;840;47.980;7.830;2022-07-23T00:32:01;6.47;;;5.97;;
1685;SDS011;840;47.980;7.830;2022-07-23T00:34:28;6.43;;;5.40;;
1685;SDS011;840;47.980;7.830;2022-07-23T00:36:56;6.40;;;5.87;;
1685;SDS011;840;47.980;7.830;2022-07-23T00:39:23;6.47;;;5.87;;
1685;SDS011;840;47.980;7.830;2022-07-23T00:41:50;5.83;;;5.43;;
1685;SDS011;840;47.980;7.830;2022-07-23T00:44:18;5.60;;;5.13;;
1685;SDS011;840;47.980;7.830;2022-07-23T00:46:47;5.60;;;5.20;;
1685;SDS011;840;47.980;7.830;2022-07-23T00:49:18;5.47;;;4.97;;
1685;SDS011;840;47.980;7.830;2022-07-23T00:51:46;5.20;;;4.80;;
1685;SDS011;840;47.980;7.830;2022-07-23T00:54:14;6.43;;;5.93;;
1685;SDS011;840;47.980;7.830;2022-07-23T00:56:42;5.37;;;4.90;;
1685;SDS011;840;47.980;7.830;2022-07-23T00:59:10;5.70;;;5.23;;
1685;SDS011;840;47.980;7.830;2022-07-23T01:01:37;5.30;;;4.90;;
1685;SDS011;840;47.980;7.830;2022-07-23T01:04:04;5.90;;;5.40;;
1685;SDS011;840;47.980;7.830;2022-07-23T01:06:31;6.37;;;5.90;;
1685;SDS011;840;47.980;7.830;2022-07-23T01:09:02;6.60;;;6.10;;
1685;SDS011;840;47.980;7.830;2022-07-23T01:11:31;6.27;;;5.83;;
1685;SDS011;840;47.980;7.830;2022-07-23T01:13:59;6.63;;;6.10;;
1685;SDS011;840;47.980;7.830;2022-07-23T01:16:33;7.07;;;6.57;;
1685;SDS011;840;47.980;7.830;2022-07-23T01:19:00;6.70;;;6.10;;
1685;SDS011;840;47.980;7.830;2022-07-23T01:21:27;6.30;;;5.70;;
1685;SDS011;840;47.980;7.830;2022-07-23T01:23:55;7.13;;;6.43;;
1685;SDS011;840;47.980;7.830;2022-07-23T01:26:22;5.83;;;5.37;;
1685;SDS011;840;47.980;7.830;2022-07-23T01:28:49;7.97;;;7.37;;
1685;SDS011;840;47.980;7.830;2022-07-23T01:31:16;6.80;;;6.30;;
1685;SDS011;840;47.980;7.830;2022-07-23T01:33:42;7.20;;;6.50;;
1685;SDS011;840;47.980;7.830;2022-07-23T01:36:09;19.30;;;11.10;;
1685;SDS011;840;47.980;7.830;2022-07-23T01:38:36;15.50;;;9.73;;
1685;SDS011;840;47.980;7.830;2022-07-23T01:41:04;15.03;;;8.83;;
1685;SDS011;840;47.980;7.830;2022-07-23T01:43:31;13.13;;;9.07;;
1685;SDS011;840;47.980;7.830;2022-07-23T01:45:58;10.00;;;9.10;;
1685;SDS011;840;47.980;7.830;2022-07-23T01:48:25;12.53;;;8.57;;
1685;SDS011;840;47.980;7.830;2022-07-23T01:50:52;10.53;;;8.10;;
1685;SDS011;840;47.980;7.830;2022-07-23T01:53:18;9.70;;;8.70;;
1685;SDS011;840;47.980;7.830;2022-07-23T01:55:45;9.93;;;8.20;;
1685;SDS011;840;47.980;7.830;2022-07-23T01:58:13;8.70;;;8.00;;
1685;SDS011;840;47.980;7.830;2022-07-23T02:00:40;10.03;;;9.03;;
1685;SDS011;840;47.980;7.830;2022-07-23T02:03:07;11.43;;;9.60;;
1685;SDS011;840;47.980;7.830;2022-07-23T02:05:34;10.50;;;9.03;;
1685;SDS011;840;47.980;7.830;2022-07-23T02:08:01;9.43;;;8.43;;
1685;SDS011;840;47.980;7.830;2022-07-23T02:10:28;10.10;;;8.97;;
1685;SDS011;840;47.980;7.830;2022-07-23T02:12:55;12.23;;;7.73;;
1685;SDS011;840;47.980;7.830;2022-07-23T02:15:23;9.47;;;8.10;;
1685;SDS011;840;47.980;7.830;2022-07-23T02:17:50;8.80;;;8.00;;
1685;SDS011;840;47.980;7.830;2022-07-23T02:20:16;10.23;;;8.53;;
1685;SDS011;840;47.980;7.830;2022-07-23T02:22:43;8.60;;;7.83;;
1685;SDS011;840;47.980;7.830;2022-07-23T02:25:10;8.13;;;7.37;;
1685;SDS011;840;47.980;7.830;2022-07-23T02:27:37;8.23;;;7.60;;
1685;SDS011;840;47.980;7.830;2022-07-23T02:30:04;7.80;;;7.20;;
1685;SDS011;840;47.980;7.830;2022-07-23T02:32:33;9.27;;;8.17;;
1685;SDS011;840;47.980;7.830;2022-07-23T02:35:00;8.67;;;7.83;;
1685;SDS011;840;47.980;7.830;2022-07-23T02:37:27;9.40;;;8.37;;
1685;SDS011;840;47.980;7.830;2022-07-23T02:39:54;7.93;;;7.33;;
1685;SDS011;840;47.980;7.830;2022-07-23T02:42:21;8.33;;;7.80;;
1685;SDS011;840;47.980;7.830;2022-07-23T02:44:49;8.77;;;7.97;;
1685;SDS011;840;47.980;7.830;2022-07-23T02:47:15;7.37;;;6.80;;
1685;SDS011;840;47.980;7.830;2022-07-23T02:49:44;7.97;;;7.43;;
1685;SDS011;840;47.980;7.830;2022-07-23T02:52:11;7.90;;;7.30;;
1685;SDS011;840;47.980;7.830;2022-07-23T02:54:37;9.33;;;8.53;;
1685;SDS011;840;47.980;7.830;2022-07-23T02:57:04;8.80;;;8.10;;
1685;SDS011;840;47.980;7.830;2022-07-23T02:59:31;9.27;;;8.47;;
1685;SDS011;840;47.980;7.830;2022-07-23T03:01:58;8.53;;;7.33;;
1685;SDS011;840;47.980;7.830;2022-07-23T03:04:25;8.07;;;7.30;;
1685;SDS011;840;47.980;7.830;2022-07-23T03:06:53;9.77;;;8.87;;
1685;SDS011;840;47.980;7.830;2022-07-23T03:09:20;8.03;;;7.33;;
1685;SDS011;840;47.980;7.830;2022-07-23T03:11:46;8.50;;;7.70;;
1685;SDS011;840;47.980;7.830;2022-07-23T03:14:13;8.17;;;7.47;;
1685;SDS011;840;47.980;7.830;2022-07-23T03:16:41;9.20;;;8.30;;
1685;SDS011;840;47.980;7.830;2022-07-23T03:19:08;8.40;;;7.63;;
1685;SDS011;840;47.980;7.830;2022-07-23T03:21:35;8.40;;;7.70;;
1685;SDS011;840;47.980;7.830;2022-07-23T03:24:06;8.10;;;7.50;;
1685;SDS011;840;47.980;7.830;2022-07-23T03:26:33;8.47;;;7.57;;
1685;SDS011;840;47.980;7.830;2022-07-23T03:29:00;8.93;;;8.23;;
1685;SDS011;840;47.980;7.830;2022-07-23T03:31:28;8.27;;;7.57;;
1685;SDS011;840;47.980;7.830;2022-07-23T03:33:56;9.47;;;8.67;;
1685;SDS011;840;47.980;7.830;2022-07-23T03:36:22;8.57;;;7.77;;
1685;SDS011;840;47.980;7.830;2022-07-23T03:38:49;9.97;;;9.07;;
1685;SDS011;840;47.980;7.830;2022-07-23T03:41:17;8.50;;;7.80;;
1685;SDS011;840;47.980;7.830;2022-07-23T03:43:44;8.20;;;7.60;;
1685;SDS011;840;47.980;7.830;2022-07-23T03:46:11;8.63;;;8.03;;
1685;SDS011;840;47.980;7.830;2022-07-23T03:48:37;8.43;;;7.73;;
1685;SDS011;840;47.980;7.830;2022-07-23T03:51:04;9.07;;;8.37;;
1685;SDS011;840;47.980;7.830;2022-07-23T03:53:32;8.10;;;7.50;;
1685;SDS011;840;47.980;7.830;2022-07-23T03:55:59;9.73;;;9.00;;
1685;SDS011;840;47.980;7.830;2022-07-23T03:58:27;9.00;;;8.40;;
1685;SDS011;840;47.980;7.830;2022-07-23T04:00:54;10.40;;;9.10;;
1685;SDS011;840;47.980;7.830;2022-07-23T04:03:21;9.70;;;9.00;;
1685;SDS011;840;47.980;7.830;2022-07-23T04:05:48;8.33;;;7.63;;
1685;SDS011;840;47.980;7.830;2022-07-23T04:08:15;8.60;;;7.90;;
1685;SDS011;840;47.980;7.830;2022-07-23T04:10:42;9.80;;;9.00;;
1685;SDS011;840;47.980;7.830;2022-07-23T04:13:09;9.30;;;8.60;;
1685;SDS011;840;47.980;7.830;2022-07-23T04:15:37;9.07;;;8.37;;
1685;SDS011;840;47.980;7.830;2022-07-23T04:18:03;9.10;;;8.20;;
1685;SDS011;840;47.980;7.830;2022-07-23T04:20:31;8.37;;;7.77;;
1685;SDS011;840;47.980;7.830;2022-07-23T04:22:57;8.00;;;7.40;;
1685;SDS011;840;47.980;7.830;2022-07-23T04:25:24;9.63;;;8.83;;
1685;SDS011;840;47.980;7.830;2022-07-23T04:27:51;8.70;;;7.87;;
1685;SDS011;840;47.980;7.830;2022-07-23T04:30:18;8.03;;;7.43;;
1685;SDS011;840;47.980;7.830;2022-07-23T04:32:46;8.20;;;7.50;;
1685;SDS011;840;47.980;7.830;2022-07-23T04:35:13;9.20;;;8.43;;
1685;SDS011;840;47.980;7.830;2022-07-23T04:37:39;8.43;;;7.67;;
1685;SDS011;840;47.980;7.830;2022-07-23T04:40:06;8.50;;;7.80;;
1685;SDS011;840;47.980;7.830;2022-07-23T04:42:34;8.87;;;7.97;;
1685;SDS011;840;47.980;7.830;2022-07-23T04:45:01;9.57;;;8.50;;
1685;SDS011;840;47.980;7.830;2022-07-23T04:47:29;7.90;;;7.20;;
1685;SDS011;840;47.980;7.830;2022-07-23T04:49:57;9.27;;;8.30;;
1685;SDS011;840;47.980;7.830;2022-07-23T04:52:25;8.17;;;7.53;;
1685;SDS011;840;47.980;7.830;2022-07-23T04:54:51;7.90;;;7.20;;
1685;SDS011;840;47.980;7.830;2022-07-23T04:57:18;9.63;;;8.83;;
1685;SDS011;840;47.980;7.830;2022-07-23T04:59:45;9.43;;;8.63;;
1685;SDS011;840;47.980;7.830;2022-07-23T05:02:11;9.60;;;8.63;;
1685;SDS011;840;47.980;7.830;2022-07-23T05:04:38;9.17;;;8.37;;
1685;SDS011;840;47.980;7.830;2022-07-23T05:07:07;8.90;;;8.13;;
1685;SDS011;840;47.980;7.830;2022-07-23T05:09:33;8.10;;;7.40;;
1685;SDS011;840;47.980;7.830;2022-07-23T05:12:00;10.23;;;9.37;;
1685;SDS011;840;47.980;7.830;2022-07-23T05:14:27;8.77;;;8.07;;
1685;SDS011;840;47.980;7.830;2022-07-23T05:16:54;12.10;;;8.23;;
1685;SDS011;840;47.980;7.830;2022-07-23T05:19:21;7.53;;;6.93;;
1685;SDS011;840;47.980;7.830;2022-07-23T05:21:47;8.43;;;7.73;;
1685;SDS011;840;47.980;7.830;2022-07-23T05:24:15;9.90;;;8.90;;
1685;SDS011;840;47.980;7.830;2022-07-23T05:26:42;8.47;;;7.77;;
1685;SDS011;840;47.980;7.830;2022-07-23T05:29:09;9.10;;;8.40;;
1685;SDS011;840;47.980;7.830;2022-07-23T05:31:36;8.80;;;7.97;;
1685;SDS011;840;47.980;7.830;2022-07-23T05:34:03;8.83;;;7.97;;
1685;SDS011;840;47.980;7.830;2022-07-23T05:36:30;8.10;;;7.50;;
1685;SDS011;840;47.980;7.830;2022-07-23T05:38:57;9.40;;;8.50;;
1685;SDS011;840;47.980;7.830;2022-07-23T05:41:25;8.70;;;8.00;;
1685;SDS011;840;47.980;7.830;2022-07-23T05:43:52;8.73;;;8.03;;
1685;SDS011;840;47.980;7.830;2022-07-23T05:46:19;8.30;;;7.50;;
1685;SDS011;840;47.980;7.830;2022-07-23T05:48:46;8.17;;;7.50;;
1685;SDS011;840;47.980;7.830;2022-07-23T05:51:18;8.30;;;7.70;;
1685;SDS011;840;47.980;7.830;2022-07-23T05:53:45;8.53;;;7.73;;
1685;SDS011;840;47.980;7.830;2022-07-23T05:56:12;9.23;;;8.53;;
1685;SDS011;840;47.980;7.830;2022-07-23T05:58:40;9.43;;;8.63;;
1685;SDS011;840;47.980;7.830;2022-07-23T06:01:07;9.50;;;8.60;;
1685;SDS011;840;47.980;7.830;2022-07-23T06:03:34;10.40;;;9.50;;
1685;SDS011;840;47.980;7.830;2022-07-23T06:06:02;10.23;;;9.43;;
1685;SDS011;840;47.980;7.830;2022-07-23T06:08:28;9.30;;;8.47;;
1685;SDS011;840;47.980;7.830;2022-07-23T06:10:55;9.63;;;8.73;;
1685;SDS011;840;47.980;7.830;2022-07-23T06:13:22;10.30;;;9.40;;
1685;SDS011;840;47.980;7.830;2022-07-23T06:15:50;9.37;;;8.47;;
1685;SDS011;840;47.980;7.830;2022-07-23T06:18:17;9.03;;;8.33;;
1685;SDS011;840;47.980;7.830;2022-07-23T06:20:44;8.93;;;8.23;;
1685;SDS011;840;47.980;7.830;2022-07-23T06:23:11;9.83;;;8.90;;
1685;SDS011;840;47.980;7.830;2022-07-23T06:25:38;9.67;;;8.87;;
1685;SDS011;840;47.980;7.830;2022-07-23T06:28:05;10.07;;;9.17;;
1685;SDS011;840;47.980;7.830;2022-07-23T06:30:32;9.57;;;8.77;;
1685;SDS011;840;47.980;7.830;2022-07-23T06:33:00;10.27;;;9.37;;
1685;SDS011;840;47.980;7.830;2022-07-23T06:35:27;8.93;;;8.13;;
1685;SDS011;840;47.980;7.830;2022-07-23T06:37:54;9.93;;;9.10;;
1685;SDS011;840;47.980;7.830;2022-07-23T06:40:21;10.37;;;9.37;;
1685;SDS011;840;47.980;7.830;2022-07-23T06:42:47;8.57;;;7.87;;
1685;SDS011;840;47.980;7.830;2022-07-23T06:45:14;11.13;;;10.17;;
1685;SDS011;840;47.980;7.830;2022-07-23T06:47:41;11.40;;;10.33;;
1685;SDS011;840;47.980;7.830;2022-07-23T06:50:10;15.87;;;11.40;;
1685;SDS011;840;47.980;7.830;2022-07-23T06:52:37;10.57;;;9.63;;
1685;SDS011;840;47.980;7.830;2022-07-23T06:55:04;11.03;;;10.00;;
1685;SDS011;840;47.980;7.830;2022-07-23T06:57:31;11.40;;;10.30;;
1685;SDS011;840;47.980;7.830;2022-07-23T06:59:58;10.30;;;9.40;;
1685;SDS011;840;47.980;7.830;2022-07-23T07:02:25;10.53;;;9.60;;
1685;SDS011;840;47.980;7.830;2022-07-23T07:04:52;10.20;;;9.30;;
1685;SDS011;840;47.980;7.830;2022-07-23T07:07:20;10.70;;;9.77;;
1685;SDS011;840;47.980;7.830;2022-07-23T07:09:47;9.97;;;9.03;;
1685;SDS011;840;47.980;7.830;2022-07-23T07:12:13;11.33;;;9.70;;
1685;SDS011;840;47.980;7.830;2022-07-23T07:14:40;10.97;;;9.97;;
1685;SDS011;840;47.980;7.830;2022-07-23T07:17:07;11.33;;;10.37;;
1685;SDS011;840;47.980;7.830;2022-07-23T07:19:36;10.20;;;9.33;;
1685;SDS011;840;47.980;7.830;2022-07-23T07:22:02;10.67;;;9.67;;
1685;SDS011;840;47.980;7.830;2022-07-23T07:24:31;11.77;;;10.60;;
1685;SDS011;840;47.980;7.830;2022-07-23T07:26:58;11.13;;;10.17;;
1685;SDS011;840;47.980;7.830;2022-07-23T07:29:25;10.20;;;9.40;;
1685;SDS011;840;47.980;7.830;2022-07-23T07:31:52;10.67;;;9.67;;
1685;SDS011;840;47.980;7.830;2022-07-23T07:34:18;8.67;;;7.97;;
1685;SDS011;840;47.980;7.830;2022-07-23T07:36:45;8.37;;;7.67;;
1685;SDS011;840;47.980;7.830;2022-07-23T07:39:12;9.50;;;8.70;;
1685;SDS011;840;47.980;7.830;2022-07-23T07:41:41;10.90;;;10.00;;
1685;SDS011;840;47.980;7.830;2022-07-23T07:44:08;10.97;;;9.97;;
1685;SDS011;840;47.980;7.830;2022-07-23T07:46:35;11.10;;;10.00;;
1685;SDS011;840;47.980;7.830;2022-07-23T07:49:02;10.07;;;9.10;;
1685;SDS011;840;47.980;7.830;2022-07-23T07:51:29;9.40;;;8.50;;
1685;SDS011;840;47.980;7.830;2022-07-23T07:53:55;10.27;;;9.27;;
1685;SDS011;840;47.980;7.830;2022-07-23T07:56:22;10.20;;;9.17;;
1685;SDS011;840;47.980;7.830;2022-07-23T07:58:50;9.60;;;8.70;;
1685;SDS011;840;47.980;7.830;2022-07-23T08:01:17;8.60;;;7.90;;
1685;SDS011;840;47.980;7.830;2022-07-23T08:03:45;9.43;;;8.50;;
1685;SDS011;840;47.980;7.830;2022-07-23T08:06:11;9.00;;;7.50;;
1685;SDS011;840;47.980;7.830;2022-07-23T08:08:38;8.03;;;7.30;;
1685;SDS011;840;47.980;7.830;2022-07-23T08:11:05;9.77;;;8.80;;
1685;SDS011;840;47.980;7.830;2022-07-23T08:13:32;10.53;;;9.07;;
1685;SDS011;840;47.980;7.830;2022-07-23T08:16:02;9.60;;;8.70;;
1685;SDS011;840;47.980;7.830;2022-07-23T08:18:29;9.13;;;8.23;;
1685;SDS011;840;47.980;7.830;2022-07-23T08:20:56;9.63;;;8.83;;
1685;SDS011;840;47.980;7.830;2022-07-23T08:23:23;9.17;;;8.40;;
1685;SDS011;840;47.980;7.830;2022-07-23T08:25:50;10.60;;;8.93;;
1685;SDS011;840;47.980;7.830;2022-07-23T08:28:16;9.53;;;8.77;;
1685;SDS011;840;47.980;7.830;2022-07-23T08:30:43;8.87;;;8.13;;
1685;SDS011;840;47.980;7.830;2022-07-23T08:33:13;8.10;;;7.40;;
1685;SDS011;840;47.980;7.830;2022-07-23T08:35:41;7.90;;;7.20;;
1685;SDS011;840;47.980;7.830;2022-07-23T08:38:10;7.00;;;6.40;;
1685;SDS011;840;47.980;7.830;2022-07-23T08:40:38;8.37;;;7.77;;
1685;SDS011;840;47.980;7.830;2022-07-23T08:43:06;8.20;;;7.60;;
1685;SDS011;840;47.980;7.830;2022-07-23T08:45:35;7.40;;;6.73;;
1685;SDS011;840;47.980;7.830;2022-07-23T08:48:04;7.93;;;7.20;;
1685;SDS011;840;47.980;7.830;2022-07-23T08:50:35;9.97;;;8.97;;
1685;SDS011;840;47.980;7.830;2022-07-23T08:53:04;8.00;;;7.30;;
1685;SDS011;840;47.980;7.830;2022-07-23T08:55:32;8.50;;;7.70;;
1685;SDS011;840;47.980;7.830;2022-07-23T08:57:59;8.40;;;7.70;;
1685;SDS011;840;47.980;7.830;2022-07-23T09:00:26;8.07;;;7.37;;
1685;SDS011;840;47.980;7.830;2022-07-23T09:02:53;8.53;;;7.83;;
1685;SDS011;840;47.980;7.830;2022-07-23T09:05:20;8.20;;;7.60;;
1685;SDS011;840;47.980;7.830;2022-07-23T09:10:48;8.77;;;8.00;;
1685;SDS011;840;47.980;7.830;2022-07-23T09:13:26;8.70;;;7.90;;
1685;SDS011;840;47.980;7.830;2022-07-23T09:15:59;11.43;;;7.60;;
1685;SDS011;840;47.980;7.830;2022-07-23T09:18:29;8.47;;;7.87;;
1685;SDS011;840;47.980;7.830;2022-07-23T09:21:06;9.00;;;8.30;;
1685;SDS011;840;47.980;7.830;2022-07-23T09:23:42;11.30;;;6.90;;
1685;SDS011;840;47.980;7.830;2022-07-23T09:26:20;8.50;;;7.70;;
1685;SDS011;840;47.980;7.830;2022-07-23T09:28:59;7.90;;;7.20;;
1685;SDS011;840;47.980;7.830;2022-07-23T09:31:31;7.73;;;7.23;;
1685;SDS011;840;47.980;7.830;2022-07-23T09:34:06;9.03;;;8.13;;
1685;SDS011;840;47.980;7.830;2022-07-23T09:36:34;8.80;;;7.70;;
1685;SDS011;840;47.980;7.830;2022-07-23T09:39:02;6.80;;;6.30;;
1685;SDS011;840;47.980;7.830;2022-07-23T09:41:33;8.27;;;7.57;;
1685;SDS011;840;47.980;7.830;2022-07-23T09:44:09;8.33;;;7.63;;
1685;SDS011;840;47.980;7.830;2022-07-23T09:46:37;7.37;;;6.83;;
1685;SDS011;840;47.980;7.830;2022-07-23T09:49:15;7.70;;;7.10;;
1685;SDS011;840;47.980;7.830;2022-07-23T09:51:47;8.00;;;7.20;;
1685;SDS011;840;47.980;7.830;2022-07-23T09:54:24;7.47;;;6.87;;
1685;SDS011;840;47.980;7.830;2022-07-23T09:57:03;7.93;;;7.40;;
1685;SDS011;840;47.980;7.830;2022-07-23T09:59:33;8.43;;;7.40;;
1685;SDS011;840;47.980;7.830;2022-07-23T10:02:01;7.57;;;6.97;;
1685;SDS011;840;47.980;7.830;2022-07-23T10:04:30;8.67;;;7.80;;
1685;SDS011;840;47.980;7.830;2022-07-23T10:06:59;8.10;;;7.40;;
1685;SDS011;840;47.980;7.830;2022-07-23T10:09:29;7.93;;;7.30;;
1685;SDS011;840;47.980;7.830;2022-07-23T10:11:58;8.13;;;7.53;;
1685;SDS011;840;47.980;7.830;2022-07-23T10:14:31;8.10;;;7.20;;
1685;SDS011;840;47.980;7.830;2022-07-23T10:16:58;7.37;;;6.77;;
1685;SDS011;840;47.980;7.830;2022-07-23T10:19:27;8.30;;;7.50;;
1685;SDS011;840;47.980;7.830;2022-07-23T10:21:56;8.20;;;7.40;;
1685;SDS011;840;47.980;7.830;2022-07-23T10:24:30;7.93;;;7.23;;
1685;SDS011;840;47.980;7.830;2022-07-23T10:27:18;7.93;;;7.20;;
1685;SDS011;840;47.980;7.830;2022-07-23T10:29:58;7.47;;;6.73;;
1685;SDS011;840;47.980;7.830;2022-07-23T10:32:35;8.27;;;7.50;;
1685;SDS011;840;47.980;7.830;2022-07-23T10:35:12;8.50;;;7.70;;
1685;SDS011;840;47.980;7.830;2022-07-23T10:37:46;7.77;;;7.10;;
1685;SDS011;840;47.980;7.830;2022-07-23T10:40:17;7.73;;;7.10;;
1685;SDS011;840;47.980;7.830;2022-07-23T10:42:47;7.30;;;6.70;;
1685;SDS011;840;47.980;7.830;2022-07-23T10:45:23;8.10;;;7.50;;
1685;SDS011;840;47.980;7.830;2022-07-23T10:47:55;8.77;;;7.97;;
1685;SDS011;840;47.980;7.830;2022-07-23T10:50:37;9.07;;;8.17;;
1685;SDS011;840;47.980;7.830;2022-07-23T10:53:11;7.93;;;7.33;;
1685;SDS011;840;47.980;7.830;2022-07-23T10:55:45;8.20;;;7.60;;
1685;SDS011;840;47.980;7.830;2022-07-23T10:58:18;8.43;;;7.73;;
1685;SDS011;840;47.980;7.830;2022-07-23T11:00:46;9.83;;;9.10;;
1685;SDS011;840;47.980;7.830;2022-07-23T11:03:30;9.53;;;8.77;;
1685;SDS011;840;47.980;7.830;2022-07-23T11:06:00;9.47;;;8.70;;
1685;SDS011;840;47.980;7.830;2022-07-23T11:08:28;9.33;;;8.53;;
1685;SDS011;840;47.980;7.830;2022-07-23T11:11:07;9.27;;;8.57;;
1685;SDS011;840;47.980;7.830;2022-07-23T11:13:39;11.00;;;9.83;;
1685;SDS011;840;47.980;7.830;2022-07-23T11:16:11;11.30;;;10.40;;
1685;SDS011;840;47.980;7.830;2022-07-23T11:18:53;10.40;;;9.60;;
1685;SDS011;840;47.980;7.830;2022-07-23T11:24:11;10.03;;;9.20;;
1685;SDS011;840;47.980;7.830;2022-07-23T11:26:48;9.13;;;8.30;;
1685;SDS011;840;47.980;7.830;2022-07-23T11:32:33;9.50;;;8.73;;
1685;SDS011;840;47.980;7.830;2022-07-23T11:35:03;10.03;;;9.13;;
1685;SDS011;840;47.980;7.830;2022-07-23T11:37:45;9.03;;;8.23;;
1685;SDS011;840;47.980;7.830;2022-07-23T11:40:14;9.20;;;8.53;;
1685;SDS011;840;47.980;7.830;2022-07-23T11:42:54;9.57;;;8.80;;
1685;SDS011;840;47.980;7.830;2022-07-23T11:45:23;11.57;;;10.40;;
1685;SDS011;840;47.980;7.830;2022-07-23T11:47:52;9.73;;;9.03;;
1685;SDS011;840;47.980;7.830;2022-07-23T11:50:24;9.97;;;9.17;;
1685;SDS011;840;47.980;7.830;2022-07-23T11:52:51;9.23;;;8.53;;
1685;SDS011;840;47.980;7.830;2022-07-23T11:55:19;10.30;;;9.50;;
1685;SDS011;840;47.980;7.830;2022-07-23T11:57:46;9.87;;;9.10;;
1685;SDS011;840;47.980;7.830;2022-07-23T12:00:16;10.90;;;9.90;;
1685;SDS011;840;47.980;7.830;2022-07-23T12:02:44;10.47;;;9.57;;
1685;SDS011;840;47.980;7.830;2022-07-23T12:05:12;10.60;;;9.50;;
1685;SDS011;840;47.980;7.830;2022-07-23T12:07:40;10.17;;;9.37;;
1685;SDS011;840;47.980;7.830;2022-07-23T12:10:10;9.20;;;8.40;;
1685;SDS011;840;47.980;7.830;2022-07-23T12:12:40;9.53;;;8.77;;
1685;SDS011;840;47.980;7.830;2022-07-23T12:15:08;9.20;;;8.50;;
1685;SDS011;840;47.980;7.830;2022-07-23T12:17:39;9.43;;;8.73;;
1685;SDS011;840;47.980;7.830;2022-07-23T12:20:09;10.27;;;9.40;;
1685;SDS011;840;47.980;7.830;2022-07-23T12:22:39;9.70;;;8.90;;
1685;SDS011;840;47.980;7.830;2022-07-23T12:25:07;8.73;;;8.13;;
1685;SDS011;840;47.980;7.830;2022-07-23T12:27:36;8.30;;;7.70;;
1685;SDS011;840;47.980;7.830;2022-07-23T12:30:16;8.93;;;8.23;;
1685;SDS011;840;47.980;7.830;2022-07-23T12:32:47;9.60;;;8.93;;
1685;SDS011;840;47.980;7.830;2022-07-23T12:35:16;10.07;;;8.30;;
1685;SDS011;840;47.980;7.830;2022-07-23T12:37:44;9.90;;;9.20;;
1685;SDS011;840;47.980;7.830;2022-07-23T12:40:19;8.90;;;8.20;;
1685;SDS011;840;47.980;7.830;2022-07-23T12:42:51;9.63;;;8.83;;
1685;SDS011;840;47.980;7.830;2022-07-23T12:45:20;8.83;;;8.03;;
1685;SDS011;840;47.980;7.830;2022-07-23T12:47:51;8.10;;;7.47;;
1685;SDS011;840;47.980;7.830;2022-07-23T12:50:33;8.90;;;8.20;;
1685;SDS011;840;47.980;7.830;2022-07-23T12:53:01;10.13;;;9.20;;
1685;SDS011;840;47.980;7.830;2022-07-23T12:55:32;9.10;;;8.40;;
1685;SDS011;840;47.980;7.830;2022-07-23T12:58:07;9.40;;;8.70;;
1685;SDS011;840;47.980;7.830;2022-07-23T13:00:52;8.20;;;7.50;;
1685;SDS011;840;47.980;7.830;2022-07-23T13:03:26;8.87;;;8.07;;
1685;SDS011;840;47.980;7.830;2022-07-23T13:05:54;8.77;;;8.17;;
1685;SDS011;840;47.980;7.830;2022-07-23T13:08:24;8.60;;;7.90;;
1685;SDS011;840;47.980;7.830;2022-07-23T13:10:52;8.43;;;7.83;;
1685;SDS011;840;47.980;7.830;2022-07-23T13:13:20;8.30;;;7.70;;
1685;SDS011;840;47.980;7.830;2022-07-23T13:15:48;8.80;;;8.20;;
1685;SDS011;840;47.980;7.830;2022-07-23T13:18:16;8.57;;;8.03;;
1685;SDS011;840;47.980;7.830;2022-07-23T13:20:45;7.63;;;7.07;;
1685;SDS011;840;47.980;7.830;2022-07-23T13:23:12;8.73;;;7.90;;
1685;SDS011;840;47.980;7.830;2022-07-23T13:25:39;9.40;;;8.60;;
1685;SDS011;840;47.980;7.830;2022-07-23T13:28:07;10.13;;;7.83;;
1685;SDS011;840;47.980;7.830;2022-07-23T13:30:34;8.80;;;7.97;;
1685;SDS011;840;47.980;7.830;2022-07-23T13:33:01;8.07;;;7.47;;
1685;SDS011;840;47.980;7.830;2022-07-23T13:35:29;10.67;;;7.90;;
1685;SDS011;840;47.980;7.830;2022-07-23T13:37:57;9.03;;;8.33;;
1685;SDS011;840;47.980;7.830;2022-07-23T13:40:24;8.60;;;7.80;;
1685;SDS011;840;47.980;7.830;2022-07-23T13:42:51;8.60;;;7.93;;
1685;SDS011;840;47.980;7.830;2022-07-23T13:45:17;7.93;;;7.40;;
1685;SDS011;840;47.980;7.830;2022-07-23T13:47:45;7.97;;;7.27;;
1685;SDS011;840;47.980;7.830;2022-07-23T13:50:11;8.07;;;7.47;;
1685;SDS011;840;47.980;7.830;2022-07-23T13:52:40;7.67;;;7.17;;
1685;SDS011;840;47.980;7.830;2022-07-23T13:55:09;7.80;;;7.27;;
1685;SDS011;840;47.980;7.830;2022-07-23T13:57:36;8.63;;;7.83;;
1685;SDS011;840;47.980;7.830;2022-07-23T14:00:03;6.90;;;6.40;;
1685;SDS011;840;47.980;7.830;2022-07-23T14:02:32;7.70;;;7.17;;
1685;SDS011;840;47.980;7.830;2022-07-23T14:04:59;7.30;;;6.63;;
1685;SDS011;840;47.980;7.830;2022-07-23T14:07:25;7.90;;;7.40;;
1685;SDS011;840;47.980;7.830;2022-07-23T14:09:52;8.10;;;7.50;;
1685;SDS011;840;47.980;7.830;2022-07-23T14:12:20;7.33;;;6.73;;
1685;SDS011;840;47.980;7.830;2022-07-23T14:14:47;7.40;;;6.80;;
1685;SDS011;840;47.980;7.830;2022-07-23T14:17:14;7.27;;;6.77;;
1685;SDS011;840;47.980;7.830;2022-07-23T14:19:40;7.70;;;7.20;;
1685;SDS011;840;47.980;7.830;2022-07-23T14:22:07;6.97;;;6.37;;
1685;SDS011;840;47.980;7.830;2022-07-23T14:24:34;7.30;;;6.60;;
1685;SDS011;840;47.980;7.830;2022-07-23T14:27:02;7.30;;;6.80;;
1685;SDS011;840;47.980;7.830;2022-07-23T14:29:31;7.83;;;7.23;;
1685;SDS011;840;47.980;7.830;2022-07-23T14:31:58;7.87;;;7.27;;
1685;SDS011;840;47.980;7.830;2022-07-23T14:34:25;9.13;;;8.43;;
1685;SDS011;840;47.980;7.830;2022-07-23T14:36:52;9.07;;;8.20;;
1685;SDS011;840;47.980;7.830;2022-07-23T14:39:19;8.77;;;8.07;;
1685;SDS011;840;47.980;7.830;2022-07-23T14:41:46;9.20;;;8.50;;
1685;SDS011;840;47.980;7.830;2022-07-23T14:44:12;9.07;;;8.37;;
1685;SDS011;840;47.980;7.830;2022-07-23T14:46:40;8.57;;;7.80;;
1685;SDS011;840;47.980;7.830;2022-07-23T14:49:07;7.97;;;7.20;;
1685;SDS011;840;47.980;7.830;2022-07-23T14:51:34;8.60;;;7.40;;
1685;SDS011;840;47.980;7.830;2022-07-23T14:54:02;8.43;;;7.80;;
1685;SDS011;840;47.980;7.830;2022-07-23T14:56:29;8.63;;;7.93;;
1685;SDS011;840;47.980;7.830;2022-07-23T14:58:56;8.37;;;7.67;;
1685;SDS011;840;47.980;7.830;2022-07-23T15:01:23;8.37;;;7.60;;
1685;SDS011;840;47.980;7.830;2022-07-23T15:03:51;8.30;;;7.70;;
1685;SDS011;840;47.980;7.830;2022-07-23T15:06:17;8.97;;;8.20;;
1685;SDS011;840;47.980;7.830;2022-07-23T15:08:44;7.67;;;7.10;;
1685;SDS011;840;47.980;7.830;2022-07-23T15:11:11;8.23;;;7.73;;
1685;SDS011;840;47.980;7.830;2022-07-23T15:13:38;9.83;;;8.93;;
1685;SDS011;840;47.980;7.830;2022-07-23T15:16:06;7.73;;;7.23;;
1685;SDS011;840;47.980;7.830;2022-07-23T15:18:33;8.93;;;8.33;;
1685;SDS011;840;47.980;7.830;2022-07-23T15:21:01;7.53;;;6.93;;
1685;SDS011;840;47.980;7.830;2022-07-23T15:23:29;8.73;;;7.83;;
1685;SDS011;840;47.980;7.830;2022-07-23T15:25:56;8.67;;;8.07;;
1685;SDS011;840;47.980;7.830;2022-07-23T15:28:23;9.10;;;8.30;;
1685;SDS011;840;47.980;7.830;2022-07-23T15:30:50;8.70;;;8.10;;
1685;SDS011;840;47.980;7.830;2022-07-23T15:33:18;8.67;;;7.70;;
1685;SDS011;840;47.980;7.830;2022-07-23T15:35:44;7.87;;;7.37;;
1685;SDS011;840;47.980;7.830;2022-07-23T15:38:13;9.50;;;8.80;;
1685;SDS011;840;47.980;7.830;2022-07-23T15:40:40;8.83;;;7.67;;
1685;SDS011;840;47.980;7.830;2022-07-23T15:43:07;8.40;;;7.80;;